Time;durP1;ratioP1;P1;durP2;ratioP2;P2;SDS_P1;SDS_P2;PMS_P1;PMS_P2;Temp;Humidity;BMP_temperature;BMP_pressure;BME280_temperature;BME280_humidity;BME280_pressure;Samples;Min_cycle;Max_cycle;Signal;HPM_P1;HPM_P2
2023/03/13 00:00:05;;;;;;;26.17;4.13;;;9.50;84.00;;;;;;5109700;27;21004;-77
2023/03/13 00:02:32;;;;;;;23.55;4.18;;;9.50;84.10;;;;;;5106819;27;20139;-77
2023/03/13 00:04:59;;;;;;;18.95;3.33;;;9.50;84.20;;;;;;5108544;27;20408;-77
2023/03/13 00:07:27;;;;;;;25.00;4.70;;;9.50;84.20;;;;;;5104510;27;20143;-76
2023/03/13 00:09:54;;;;;;;18.27;3.60;;;9.50;84.30;;;;;;5107218;28;20059;-76
2023/03/13 00:12:21;;;;;;;26.67;4.00;;;9.50;84.30;;;;;;5108903;28;20079;-76
2023/03/13 00:14:48;;;;;;;21.25;4.07;;;9.50;84.40;;;;;;5107441;28;20078;-76
2023/03/13 00:17:15;;;;;;;19.10;4.55;;;9.50;84.50;;;;;;5106937;28;20079;-76
2023/03/13 00:19:42;;;;;;;22.33;3.97;;;9.50;84.40;;;;;;5107517;28;20970;-76
2023/03/13 00:22:09;;;;;;;23.00;4.07;;;9.50;84.60;;;;;;5107543;28;20131;-76
2023/03/13 00:24:37;;;;;;;17.70;2.70;;;9.50;84.80;;;;;;5103418;27;20421;-75
2023/03/13 00:27:05;;;;;;;21.55;3.92;;;9.50;84.80;;;;;;5105042;28;20510;-76
2023/03/13 00:29:34;;;;;;;17.98;3.90;;;9.50;84.80;;;;;;5088678;28;20098;-76
2023/03/13 00:32:02;;;;;;;20.80;3.28;;;9.40;84.80;;;;;;5100580;28;20561;-77
2023/03/13 00:34:29;;;;;;;17.67;3.67;;;9.40;85.10;;;;;;5101700;28;20640;-76
2023/03/13 00:36:56;;;;;;;18.40;4.00;;;9.40;85.10;;;;;;5090242;28;20056;-76
2023/03/13 00:39:23;;;;;;;20.55;4.03;;;9.40;85.30;;;;;;5089921;28;20449;-76
2023/03/13 00:41:51;;;;;;;18.35;3.38;;;9.40;85.30;;;;;;5100156;27;20056;-76
2023/03/13 00:44:18;;;;;;;16.58;3.08;;;9.40;85.40;;;;;;5106697;28;20040;-76
2023/03/13 00:46:47;;;;;;;21.60;3.70;;;9.40;85.30;;;;;;5107436;28;20052;-76
2023/03/13 00:49:15;;;;;;;16.40;3.60;;;9.40;85.30;;;;;;5087972;28;20062;-76
2023/03/13 00:51:41;;;;;;;17.52;3.08;;;9.40;85.50;;;;;;5088553;28;20060;-76
2023/03/13 00:54:09;;;;;;;19.33;3.92;;;9.40;85.60;;;;;;5088227;28;20052;-76
2023/03/13 00:56:36;;;;;;;19.23;3.13;;;9.40;85.70;;;;;;5090752;28;20070;-77
2023/03/13 00:59:05;;;;;;;20.90;4.30;;;9.40;85.70;;;;;;5102480;27;20361;-76
2023/03/13 01:01:34;;;;;;;22.42;3.83;;;9.40;85.90;;;;;;5090360;28;20145;-77
2023/03/13 01:04:03;;;;;;;16.05;3.15;;;9.40;85.90;;;;;;5089342;28;20125;-76
2023/03/13 01:06:33;;;;;;;22.15;3.35;;;9.40;86.00;;;;;;5089155;28;20040;-77
2023/03/13 01:09:00;;;;;;;18.45;3.22;;;9.40;86.10;;;;;;5094442;28;20055;-76
2023/03/13 01:11:29;;;;;;;15.87;3.53;;;9.40;86.30;;;;;;5106962;28;20814;-76
2023/03/13 01:13:59;;;;;;;11.38;3.22;;;9.40;86.30;;;;;;5088132;28;20048;-76
2023/03/13 01:16:29;;;;;;;19.13;3.78;;;9.40;86.30;;;;;;5093074;27;20060;-76
2023/03/13 01:18:59;;;;;;;16.95;2.95;;;9.40;86.50;;;;;;5103382;28;20048;-77
2023/03/13 01:21:27;;;;;;;21.02;3.20;;;9.40;86.60;;;;;;5089596;28;20125;-77
2023/03/13 01:23:56;;;;;;;16.07;3.47;;;9.40;86.60;;;;;;5105464;28;21080;-76
2023/03/13 01:26:23;;;;;;;19.30;3.45;;;9.40;86.70;;;;;;5103920;28;20051;-77
2023/03/13 01:28:51;;;;;;;16.33;3.05;;;9.40;86.70;;;;;;5088358;28;20160;-76
2023/03/13 01:31:20;;;;;;;19.17;3.25;;;9.40;86.80;;;;;;5093312;28;20055;-76
2023/03/13 01:33:50;;;;;;;21.27;4.20;;;9.40;86.90;;;;;;5079997;28;20075;-76
2023/03/13 01:36:18;;;;;;;13.70;3.23;;;9.40;86.90;;;;;;5109860;28;20163;-76
2023/03/13 01:38:48;;;;;;;15.48;2.90;;;9.40;87.00;;;;;;5090814;28;20154;-76
2023/03/13 01:41:16;;;;;;;20.20;3.20;;;9.40;87.10;;;;;;5091875;28;20052;-77
2023/03/13 01:43:44;;;;;;;18.52;4.07;;;9.30;87.00;;;;;;5092098;28;20040;-76
2023/03/13 01:46:15;;;;;;;16.85;3.20;;;9.40;87.30;;;;;;5089357;28;20097;-76
2023/03/13 01:49:05;;;;;;;15.23;3.00;;;9.40;87.20;;;;;;5088543;28;20177;-76
2023/03/13 01:51:40;;;;;;;18.98;4.13;;;9.40;87.20;;;;;;5088281;28;20051;-76
2023/03/13 01:54:11;;;;;;;15.65;3.60;;;9.40;87.10;;;;;;5109260;28;20137;-77
2023/03/13 01:56:45;;;;;;;15.13;3.13;;;9.40;87.10;;;;;;5086754;28;20044;-76
2023/03/13 01:59:16;;;;;;;14.73;3.70;;;9.40;87.10;;;;;;5088597;28;20235;-76
2023/03/13 02:01:46;;;;;;;15.43;3.87;;;9.40;87.20;;;;;;5087885;28;20052;-76
2023/03/13 02:04:16;;;;;;;15.10;3.35;;;9.40;87.20;;;;;;5084721;28;20056;-76
2023/03/13 02:06:47;;;;;;;15.95;3.53;;;9.40;87.10;;;;;;5085288;28;20598;-76
2023/03/13 02:09:18;;;;;;;13.65;2.80;;;9.40;87.50;;;;;;5087413;28;20433;-76
2023/03/13 02:11:50;;;;;;;12.55;3.00;;;9.40;87.50;;;;;;5092143;28;20600;-76
2023/03/13 02:14:21;;;;;;;12.57;3.30;;;9.40;87.80;;;;;;5108383;28;20357;-76
2023/03/13 02:16:50;;;;;;;13.45;3.58;;;9.40;88.00;;;;;;5121911;27;20050;-76
2023/03/13 02:19:30;;;;;;;15.40;3.38;;;9.40;88.00;;;;;;5098117;28;20048;-76
2023/03/13 02:22:04;;;;;;;14.02;2.90;;;9.40;88.20;;;;;;5106823;28;20098;-76
2023/03/13 02:24:37;;;;;;;11.82;3.05;;;9.40;88.60;;;;;;5109094;28;20561;-75
2023/03/13 02:27:06;;;;;;;13.13;3.33;;;9.40;88.50;;;;;;5089829;28;20087;-75
2023/03/13 02:29:37;;;;;;;11.23;2.50;;;9.40;88.90;;;;;;5091781;28;20052;-76
2023/03/13 02:32:04;;;;;;;10.25;3.30;;;9.40;88.90;;;;;;5090487;28;20529;-76
2023/03/13 02:34:35;;;;;;;12.07;3.20;;;9.40;88.90;;;;;;5081460;28;20135;-76
2023/03/13 02:37:04;;;;;;;13.63;3.17;;;9.40;89.10;;;;;;5104339;28;20538;-76
2023/03/13 02:39:33;;;;;;;11.40;2.37;;;9.40;89.30;;;;;;5104295;27;20047;-76
2023/03/13 02:42:02;;;;;;;11.38;2.38;;;9.40;89.20;;;;;;5103668;28;20112;-76
2023/03/13 02:44:31;;;;;;;9.00;2.47;;;9.40;89.60;;;;;;5087791;28;20053;-76
2023/03/13 02:46:58;;;;;;;14.00;3.03;;;9.40;89.50;;;;;;5117589;27;20052;-76
2023/03/13 02:49:29;;;;;;;10.50;2.72;;;9.40;89.80;;;;;;5091469;28;20052;-76
2023/03/13 02:52:00;;;;;;;8.83;2.10;;;9.40;89.90;;;;;;5109413;28;20069;-76
2023/03/13 02:54:31;;;;;;;5.38;1.58;;;9.40;90.10;;;;;;5088661;28;20672;-76
2023/03/13 02:57:03;;;;;;;8.20;1.65;;;9.40;90.20;;;;;;5083310;28;20048;-76
2023/03/13 02:59:33;;;;;;;6.95;2.00;;;9.40;90.20;;;;;;5086270;28;20131;-76
2023/03/13 03:02:00;;;;;;;6.32;1.95;;;9.40;90.20;;;;;;5081079;28;20054;-76
2023/03/13 03:04:27;;;;;;;11.03;2.43;;;9.50;90.40;;;;;;5122163;27;20055;-75
2023/03/13 03:06:56;;;;;;;8.00;2.35;;;9.50;90.50;;;;;;5107719;28;20608;-76
2023/03/13 03:09:23;;;;;;;9.43;2.60;;;9.50;90.40;;;;;;5108442;27;20135;-76
2023/03/13 03:11:55;;;;;;;8.27;2.28;;;9.50;90.60;;;;;;5108361;28;20048;-76
2023/03/13 03:14:22;;;;;;;8.38;2.80;;;9.50;90.70;;;;;;5090169;28;20745;-76
2023/03/13 03:16:50;;;;;;;8.00;1.93;;;9.50;91.00;;;;;;5101505;28;20131;-76
2023/03/13 03:19:17;;;;;;;7.63;2.05;;;9.50;90.90;;;;;;5095152;28;20637;-76
2023/03/13 03:21:47;;;;;;;7.68;1.92;;;9.60;91.00;;;;;;5105598;28;20048;-75
2023/03/13 03:24:14;;;;;;;7.65;1.88;;;9.60;91.20;;;;;;5088059;28;20169;-75
2023/03/13 03:26:41;;;;;;;6.65;2.10;;;9.60;91.10;;;;;;5091142;28;20494;-76
2023/03/13 03:29:15;;;;;;;6.33;2.20;;;9.60;91.20;;;;;;5090390;28;20048;-76
2023/03/13 03:31:42;;;;;;;5.70;2.08;;;9.70;91.40;;;;;;5090026;28;20052;-75
2023/03/13 03:34:12;;;;;;;5.78;2.00;;;9.70;91.50;;;;;;5088335;28;20045;-76
2023/03/13 03:36:39;;;;;;;5.50;1.73;;;9.80;91.50;;;;;;5103763;27;20131;-76
2023/03/13 03:39:06;;;;;;;6.72;2.40;;;9.80;91.60;;;;;;5107968;28;20113;-76
2023/03/13 03:41:34;;;;;;;7.67;2.60;;;9.90;91.80;;;;;;5090676;28;20044;-76
2023/03/13 03:44:01;;;;;;;5.75;2.00;;;9.90;91.80;;;;;;5086101;28;20076;-76
2023/03/13 03:46:38;;;;;;;6.85;2.42;;;10.00;91.80;;;;;;5102915;28;20402;-76
2023/03/13 03:49:05;;;;;;;9.38;2.70;;;10.00;91.90;;;;;;5107585;28;20578;-76
2023/03/13 03:51:34;;;;;;;7.20;2.80;;;10.00;91.90;;;;;;5090252;28;20040;-75
2023/03/13 03:54:01;;;;;;;6.73;2.60;;;10.00;92.00;;;;;;5086485;28;20514;-75
2023/03/13 03:56:31;;;;;;;6.75;2.47;;;10.00;92.00;;;;;;5105634;27;20139;-76
2023/03/13 03:59:00;;;;;;;6.47;2.85;;;10.10;92.10;;;;;;5082433;28;20498;-76
2023/03/13 04:01:47;;;;;;;5.97;2.60;;;10.10;92.30;;;;;;5101558;28;20045;-76
2023/03/13 04:04:19;;;;;;;6.72;2.50;;;10.10;92.20;;;;;;5107085;28;20052;-76
2023/03/13 04:06:53;;;;;;;7.07;2.20;;;10.10;92.30;;;;;;5090855;28;20482;-76
2023/03/13 04:09:20;;;;;;;6.45;2.95;;;10.20;92.40;;;;;;5104677;28;20052;-76
2023/03/13 04:11:47;;;;;;;6.70;2.85;;;10.20;92.50;;;;;;5084339;28;20409;-77
2023/03/13 04:14:14;;;;;;;7.05;2.55;;;10.20;92.70;;;;;;5085381;28;20052;-76
2023/03/13 04:16:41;;;;;;;7.07;2.50;;;10.30;92.70;;;;;;5089139;28;20139;-76
2023/03/13 04:19:08;;;;;;;4.93;1.90;;;10.30;92.80;;;;;;5087065;28;20044;-77
2023/03/13 04:21:36;;;;;;;7.28;2.28;;;10.40;92.70;;;;;;5085279;28;20052;-76
2023/03/13 04:24:10;;;;;;;6.05;3.13;;;10.40;92.70;;;;;;5107868;28;20040;-77
2023/03/13 04:26:39;;;;;;;6.40;1.92;;;10.40;92.90;;;;;;5090241;28;20055;-77
2023/03/13 04:29:07;;;;;;;8.45;3.60;;;10.50;93.00;;;;;;5086987;28;20569;-76
2023/03/13 04:31:57;;;;;;;7.57;3.00;;;10.50;93.00;;;;;;5069979;28;20151;-77
2023/03/13 04:34:30;;;;;;;7.10;2.90;;;10.60;93.00;;;;;;5100512;28;20445;-77
2023/03/13 04:37:15;;;;;;;6.60;3.10;;;10.70;93.00;;;;;;5106235;27;20055;-76
2023/03/13 04:40:08;;;;;;;5.45;2.53;;;10.70;92.90;;;;;;5106197;28;20044;-77
2023/03/13 04:42:55;;;;;;;7.55;3.50;;;10.70;92.90;;;;;;5096180;28;20048;-76
2023/03/13 04:45:41;;;;;;;8.90;4.07;;;10.70;93.00;;;;;;5093597;28;20045;-76
2023/03/13 04:48:26;;;;;;;8.70;4.82;;;10.80;93.20;;;;;;5096430;28;20056;-76
2023/03/13 04:51:00;;;;;;;9.73;4.78;;;10.90;93.20;;;;;;5103370;28;20049;-76
2023/03/13 04:54:00;;;;;;;10.10;5.03;;;10.90;93.20;;;;;;5082220;28;20048;-76
2023/03/13 04:56:47;;;;;;;9.55;4.80;;;11.00;93.30;;;;;;5105709;28;20105;-78
2023/03/13 04:59:35;;;;;;;11.20;4.97;;;11.00;93.30;;;;;;5098900;28;20056;-78
2023/03/13 05:02:22;;;;;;;12.70;5.82;;;11.10;93.30;;;;;;5084736;28;20403;-76
2023/03/13 05:05:04;;;;;;;8.75;4.30;;;11.10;93.40;;;;;;5091188;28;20051;-78
2023/03/13 05:07:51;;;;;;;9.50;5.68;;;11.30;93.20;;;;;;5058125;28;20055;-78
2023/03/13 05:10:28;;;;;;;10.00;5.10;;;11.30;93.10;;;;;;5106411;28;20054;-78
2023/03/13 05:13:26;;;;;;;10.13;5.30;;;11.30;93.10;;;;;;5088644;28;20055;-79
2023/03/13 05:15:53;;;;;;;8.02;4.28;;;11.30;93.20;;;;;;5105815;28;20052;-77
2023/03/13 05:18:33;;;;;;;7.97;4.15;;;11.40;93.20;;;;;;5091406;28;20044;-77
2023/03/13 05:21:20;;;;;;;8.65;4.38;;;11.50;93.00;;;;;;5091448;27;20278;-76
2023/03/13 05:23:59;;;;;;;9.68;5.00;;;11.50;92.90;;;;;;5088118;28;20087;-77
2023/03/13 05:26:53;;;;;;;9.40;5.47;;;11.50;92.90;;;;;;5093089;28;20048;-76
2023/03/13 05:29:31;;;;;;;8.23;3.10;;;11.60;92.90;;;;;;5109790;28;20135;-77
2023/03/13 05:32:09;;;;;;;9.25;4.00;;;11.70;92.70;;;;;;5109323;28;20048;-76
2023/03/13 05:35:00;;;;;;;8.18;4.40;;;11.70;92.80;;;;;;5090617;28;20052;-76
2023/03/13 05:37:46;;;;;;;10.30;4.30;;;11.70;92.70;;;;;;5100282;27;20086;-77
2023/03/13 05:40:31;;;;;;;10.07;4.40;;;11.70;92.70;;;;;;5091752;28;20562;-77
2023/03/13 05:43:17;;;;;;;7.25;3.58;;;11.70;92.50;;;;;;5108833;28;20134;-77
2023/03/13 05:46:06;;;;;;;8.25;3.42;;;11.80;92.60;;;;;;5090292;28;20044;-76
2023/03/13 05:48:46;;;;;;;7.82;3.53;;;11.80;92.40;;;;;;5092328;28;20052;-76
2023/03/13 05:51:31;;;;;;;8.40;4.65;;;11.80;92.50;;;;;;5107528;28;20615;-76
2023/03/13 05:54:27;;;;;;;9.50;4.13;;;11.90;92.50;;;;;;5102645;28;20207;-76
2023/03/13 05:57:19;;;;;;;7.88;4.30;;;11.80;92.40;;;;;;5091804;28;20493;-77
2023/03/13 06:00:02;;;;;;;7.70;3.22;;;11.90;92.50;;;;;;5087133;28;20481;-77
2023/03/13 06:02:49;;;;;;;7.90;3.95;;;11.90;92.30;;;;;;5091407;28;20047;-76
2023/03/13 06:05:23;;;;;;;8.40;4.43;;;11.90;92.20;;;;;;5101144;28;20404;-77
2023/03/13 06:07:50;;;;;;;9.10;4.20;;;11.90;92.10;;;;;;5092201;28;20055;-76
2023/03/13 06:10:17;;;;;;;8.05;3.60;;;11.90;91.90;;;;;;5101076;28;20776;-77
2023/03/13 06:12:45;;;;;;;11.43;4.57;;;12.00;91.60;;;;;;5091833;28;20102;-76
2023/03/13 06:15:15;;;;;;;8.70;4.10;;;12.00;91.50;;;;;;5098691;28;20082;-77
2023/03/13 06:18:06;;;;;;;7.10;3.33;;;12.00;91.20;;;;;;5109041;28;20044;-76
2023/03/13 06:20:33;;;;;;;8.07;3.77;;;12.00;91.00;;;;;;5105656;28;20121;-77
2023/03/13 06:22:59;;;;;;;7.55;3.60;;;12.10;90.70;;;;;;5108726;28;20044;-76
2023/03/13 06:25:26;;;;;;;7.15;2.80;;;12.10;90.50;;;;;;5109684;28;20079;-76
2023/03/13 06:27:53;;;;;;;9.63;4.28;;;12.10;90.50;;;;;;5109207;28;20127;-76
2023/03/13 06:30:20;;;;;;;8.85;4.32;;;12.10;90.50;;;;;;5111093;28;20597;-77
2023/03/13 06:32:49;;;;;;;7.30;3.67;;;12.10;90.40;;;;;;5089041;28;20636;-77
2023/03/13 06:35:17;;;;;;;9.15;3.63;;;12.20;90.30;;;;;;5102384;28;20113;-77
2023/03/13 06:37:44;;;;;;;10.95;4.40;;;12.20;90.00;;;;;;5104060;28;20054;-77
2023/03/13 06:40:12;;;;;;;11.10;4.45;;;12.10;89.80;;;;;;5106885;27;20055;-77
2023/03/13 06:42:39;;;;;;;9.77;4.63;;;12.20;89.80;;;;;;5108673;28;20078;-76
2023/03/13 06:45:07;;;;;;;10.57;4.67;;;12.20;89.50;;;;;;5108618;28;20554;-76
2023/03/13 06:47:34;;;;;;;7.82;3.33;;;12.20;89.30;;;;;;5082308;28;20047;-76
2023/03/13 06:50:01;;;;;;;11.00;4.30;;;12.20;88.80;;;;;;5102489;28;20127;-77
2023/03/13 06:52:29;;;;;;;12.65;3.58;;;12.20;88.80;;;;;;5103162;28;20415;-77
2023/03/13 06:54:56;;;;;;;11.05;3.63;;;12.20;88.60;;;;;;5102154;28;20152;-77
2023/03/13 06:57:23;;;;;;;10.17;3.30;;;12.20;88.20;;;;;;5104407;28;20126;-79
2023/03/13 06:59:50;;;;;;;7.43;2.92;;;12.20;88.10;;;;;;5086914;28;20101;-79
2023/03/13 07:02:17;;;;;;;12.15;3.25;;;12.20;87.80;;;;;;5106048;28;20047;-77
2023/03/13 07:04:45;;;;;;;9.15;3.35;;;12.30;87.60;;;;;;5106769;28;20514;-76
2023/03/13 07:07:12;;;;;;;9.05;3.00;;;12.20;87.60;;;;;;5104404;27;20048;-77
2023/03/13 07:09:40;;;;;;;12.13;3.70;;;12.30;87.20;;;;;;5108461;28;20143;-77
2023/03/13 07:12:08;;;;;;;9.05;3.45;;;12.40;86.80;;;;;;5107969;28;20801;-78
2023/03/13 07:14:35;;;;;;;7.72;3.10;;;12.40;86.70;;;;;;5108195;28;20575;-76
2023/03/13 07:17:02;;;;;;;8.02;2.85;;;12.50;86.50;;;;;;5087627;28;20076;-78
2023/03/13 07:19:29;;;;;;;8.95;2.70;;;12.50;86.40;;;;;;5106617;28;20050;-79
2023/03/13 07:21:56;;;;;;;10.60;3.07;;;12.50;86.40;;;;;;5104460;28;20052;-80
2023/03/13 07:24:23;;;;;;;9.95;3.40;;;12.50;86.30;;;;;;5100658;27;20059;-76
2023/03/13 07:26:52;;;;;;;10.70;2.92;;;12.50;86.10;;;;;;5102912;28;20657;-77
2023/03/13 07:29:19;;;;;;;7.70;2.90;;;12.50;85.70;;;;;;5102757;28;20686;-77
2023/03/13 07:31:45;;;;;;;7.53;2.42;;;12.50;85.70;;;;;;5095333;28;20052;-76
2023/03/13 07:34:12;;;;;;;9.40;2.70;;;12.50;85.50;;;;;;5104434;28;20837;-78
2023/03/13 07:36:40;;;;;;;9.55;3.08;;;12.50;85.50;;;;;;5102686;28;20076;-77
2023/03/13 07:39:07;;;;;;;10.75;3.03;;;12.50;85.30;;;;;;5108287;28;20040;-77
2023/03/13 07:41:34;;;;;;;7.93;2.85;;;12.50;85.40;;;;;;5105703;27;20062;-77
2023/03/13 07:44:02;;;;;;;7.95;2.42;;;12.50;85.50;;;;;;5105783;28;20083;-78
2023/03/13 07:46:29;;;;;;;9.10;2.53;;;12.50;85.30;;;;;;5107477;28;20419;-77
2023/03/13 07:48:57;;;;;;;8.20;2.60;;;12.60;85.30;;;;;;5107747;28;20056;-77
2023/03/13 07:51:25;;;;;;;8.98;2.90;;;12.60;85.40;;;;;;5102106;28;20553;-78
2023/03/13 07:53:53;;;;;;;11.73;2.47;;;12.60;85.40;;;;;;5101161;28;20052;-77
2023/03/13 07:56:21;;;;;;;7.35;2.40;;;12.70;85.40;;;;;;5101105;28;20052;-76
2023/03/13 07:58:49;;;;;;;8.47;2.57;;;12.60;85.50;;;;;;5106220;28;20498;-77
2023/03/13 08:01:19;;;;;;;8.55;2.55;;;12.70;85.70;;;;;;5098426;28;20528;-77
2023/03/13 08:03:49;;;;;;;7.53;2.20;;;12.70;85.90;;;;;;5108653;28;20062;-77
2023/03/13 08:06:18;;;;;;;5.47;2.08;;;12.70;86.20;;;;;;5108575;27;20048;-78
2023/03/13 08:08:45;;;;;;;7.95;2.50;;;12.60;86.70;;;;;;5107091;28;20059;-78
2023/03/13 08:11:13;;;;;;;8.37;2.60;;;12.60;87.00;;;;;;5107515;28;20119;-77
2023/03/13 08:13:41;;;;;;;6.63;2.55;;;12.50;87.40;;;;;;5101027;28;20049;-78
2023/03/13 08:16:10;;;;;;;7.40;2.50;;;12.50;87.70;;;;;;5104455;28;20056;-78
2023/03/13 08:18:40;;;;;;;5.32;1.77;;;12.50;88.00;;;;;;5099601;27;20083;-77
2023/03/13 08:21:09;;;;;;;4.72;2.28;;;12.50;88.10;;;;;;5104130;28;20631;-77
2023/03/13 08:23:36;;;;;;;6.30;2.10;;;12.50;88.10;;;;;;5088154;28;20123;-79
2023/03/13 08:26:06;;;;;;;6.43;2.15;;;12.50;88.10;;;;;;5088696;28;20699;-78
2023/03/13 08:28:33;;;;;;;5.00;1.85;;;12.50;88.20;;;;;;5104443;28;20056;-78
2023/03/13 08:31:07;;;;;;;7.55;2.38;;;12.50;88.30;;;;;;5105734;28;20123;-75
2023/03/13 08:33:34;;;;;;;5.75;1.77;;;12.50;88.40;;;;;;5105194;28;20136;-75
2023/03/13 08:36:11;;;;;;;7.70;2.20;;;12.50;88.60;;;;;;5098361;28;20208;-76
2023/03/13 08:38:38;;;;;;;7.68;2.08;;;12.40;88.70;;;;;;5106152;27;20150;-77
2023/03/13 08:41:05;;;;;;;7.25;2.70;;;12.50;88.80;;;;;;5091857;28;20052;-77
2023/03/13 08:43:32;;;;;;;8.10;2.45;;;12.50;88.90;;;;;;5105487;27;20044;-77
2023/03/13 08:45:59;;;;;;;5.93;1.63;;;12.40;89.00;;;;;;5104654;28;20128;-77
2023/03/13 08:48:26;;;;;;;9.07;2.47;;;12.40;89.00;;;;;;5105526;28;20135;-77
2023/03/13 08:51:03;;;;;;;6.55;2.63;;;12.50;88.80;;;;;;5104747;28;20094;-77
2023/03/13 08:53:32;;;;;;;5.78;2.45;;;12.40;88.90;;;;;;5102022;28;20059;-76
2023/03/13 08:56:00;;;;;;;6.68;2.30;;;12.50;88.90;;;;;;5103656;27;20062;-75
2023/03/13 08:58:27;;;;;;;5.60;1.80;;;12.50;88.70;;;;;;5111506;27;20621;-76
2023/03/13 09:00:55;;;;;;;5.00;1.60;;;12.50;88.70;;;;;;5111436;28;20056;-76
2023/03/13 09:03:22;;;;;;;6.53;2.40;;;12.50;88.50;;;;;;5110402;28;20056;-77
2023/03/13 09:05:48;;;;;;;6.88;2.33;;;12.50;88.50;;;;;;5104791;28;20088;-77
2023/03/13 09:08:15;;;;;;;8.50;2.13;;;12.50;88.30;;;;;;5102045;28;20531;-76
2023/03/13 09:10:44;;;;;;;6.03;1.95;;;12.60;88.00;;;;;;5111016;28;20262;-76
2023/03/13 09:13:10;;;;;;;5.60;2.17;;;12.70;87.10;;;;;;5101683;27;20534;-78
2023/03/13 09:15:37;;;;;;;7.38;2.05;;;12.70;87.10;;;;;;5111351;28;20338;-79
2023/03/13 09:18:05;;;;;;;5.57;2.40;;;12.80;86.60;;;;;;5093943;28;20048;-78
2023/03/13 09:20:32;;;;;;;5.55;2.20;;;12.80;86.40;;;;;;5110588;28;20540;-75
2023/03/13 09:22:59;;;;;;;5.97;2.13;;;12.80;86.10;;;;;;5102835;27;20147;-76
2023/03/13 09:25:26;;;;;;;6.87;2.03;;;12.80;86.00;;;;;;5100497;28;20051;-76
2023/03/13 09:27:54;;;;;;;7.35;2.13;;;12.80;85.40;;;;;;5108820;28;20048;-77
2023/03/13 09:30:21;;;;;;;7.28;2.20;;;12.90;85.00;;;;;;5103933;28;20684;-77
2023/03/13 09:32:48;;;;;;;6.03;1.90;;;12.90;85.10;;;;;;5111291;28;20599;-77
2023/03/13 09:35:15;;;;;;;5.45;1.95;;;12.90;85.20;;;;;;5105655;28;20123;-77
2023/03/13 09:37:42;;;;;;;4.50;1.67;;;12.90;85.40;;;;;;5105763;28;20097;-76
2023/03/13 09:40:14;;;;;;;5.20;1.42;;;12.90;84.90;;;;;;5093490;28;20583;-77
2023/03/13 09:42:46;;;;;;;6.18;2.22;;;12.80;85.20;;;;;;5103694;28;20510;-76
2023/03/13 09:45:17;;;;;;;9.27;2.30;;;12.80;85.40;;;;;;5101377;28;20053;-76
2023/03/13 09:47:49;;;;;;;6.28;1.67;;;12.90;84.90;;;;;;5102023;28;20063;-77
2023/03/13 09:50:21;;;;;;;5.43;1.50;;;12.90;84.50;;;;;;5109487;28;20056;-76
2023/03/13 09:52:51;;;;;;;6.22;1.80;;;12.90;84.40;;;;;;5106708;28;20473;-75
2023/03/13 09:55:21;;;;;;;9.02;1.90;;;12.90;83.90;;;;;;5109779;28;20083;-76
2023/03/13 09:57:53;;;;;;;7.22;1.50;;;12.90;83.80;;;;;;5110667;28;20135;-77
2023/03/13 10:00:25;;;;;;;6.85;2.15;;;12.90;83.70;;;;;;5109359;28;20534;-76
2023/03/13 10:03:00;;;;;;;6.23;1.10;;;12.90;83.80;;;;;;5108418;28;20912;-76
2023/03/13 10:05:28;;;;;;;6.13;1.70;;;12.90;83.50;;;;;;5096245;27;20537;-76
2023/03/13 10:08:15;;;;;;;5.30;2.10;;;13.00;83.10;;;;;;5103548;28;20149;-76
2023/03/13 10:10:47;;;;;;;5.57;1.60;;;13.10;82.20;;;;;;5108435;28;20162;-76
2023/03/13 10:13:22;;;;;;;6.80;1.63;;;13.10;82.00;;;;;;5110150;27;20060;-76
2023/03/13 10:15:55;;;;;;;5.43;1.40;;;13.10;81.80;;;;;;5107403;28;20433;-76
2023/03/13 10:18:24;;;;;;;9.80;1.98;;;13.10;80.70;;;;;;5101690;28;20077;-76
2023/03/13 10:20:53;;;;;;;7.68;1.80;;;13.20;79.80;;;;;;5099986;28;20086;-77
2023/03/13 10:23:29;;;;;;;8.40;1.80;;;13.20;79.70;;;;;;5105621;28;20056;-75
2023/03/13 10:25:56;;;;;;;7.18;1.63;;;13.20;78.70;;;;;;5097989;27;20490;-76
2023/03/13 10:28:24;;;;;;;8.07;1.83;;;13.30;78.20;;;;;;5095969;28;20135;-77
2023/03/13 10:30:58;;;;;;;9.10;2.13;;;13.30;78.40;;;;;;5104747;28;20044;-77
2023/03/13 10:33:26;;;;;;;9.40;2.17;;;13.30;77.70;;;;;;5096281;28;20059;-74
2023/03/13 10:36:02;;;;;;;6.32;1.70;;;13.30;77.20;;;;;;5104237;28;20359;-76
2023/03/13 10:38:29;;;;;;;9.25;1.48;;;13.30;76.80;;;;;;5101226;28;20584;-76
2023/03/13 10:41:01;;;;;;;8.93;2.00;;;13.30;76.50;;;;;;5107292;28;20056;-76
2023/03/13 10:43:29;;;;;;;7.30;1.60;;;13.40;76.50;;;;;;5091996;28;20059;-75
2023/03/13 10:45:59;;;;;;;8.45;1.73;;;13.50;76.50;;;;;;5114701;27;20049;-74
2023/03/13 10:48:30;;;;;;;12.05;1.80;;;13.50;76.40;;;;;;5099266;28;20140;-75
2023/03/13 10:50:57;;;;;;;7.50;1.70;;;13.50;76.50;;;;;;5106685;28;20044;-74
2023/03/13 10:53:32;;;;;;;13.13;2.07;;;13.50;75.40;;;;;;5099850;28;20048;-74
2023/03/13 10:56:03;;;;;;;9.68;1.70;;;13.50;75.50;;;;;;5105518;28;20075;-76
2023/03/13 10:58:35;;;;;;;8.23;1.92;;;13.60;75.30;;;;;;5103339;28;20151;-76
2023/03/13 11:01:20;;;;;;;9.32;1.80;;;13.60;75.60;;;;;;5122425;27;20867;-76
2023/03/13 11:03:49;;;;;;;9.30;1.70;;;13.60;75.70;;;;;;5088184;28;20063;-76
2023/03/13 11:06:30;;;;;;;6.77;1.50;;;13.70;76.10;;;;;;5103855;28;20153;-76
2023/03/13 11:09:10;;;;;;;8.10;1.60;;;13.70;76.00;;;;;;5109026;28;20155;-75
2023/03/13 11:11:48;;;;;;;8.45;1.77;;;13.90;75.80;;;;;;5102791;28;20048;-76
2023/03/13 11:14:17;;;;;;;6.00;1.80;;;13.90;75.50;;;;;;5091359;28;20139;-76
2023/03/13 11:16:51;;;;;;;6.45;1.60;;;13.90;75.70;;;;;;5105443;28;20071;-75
2023/03/13 11:19:41;;;;;;;7.17;1.53;;;14.00;75.30;;;;;;5089979;28;20044;-76
2023/03/13 11:22:30;;;;;;;5.45;1.30;;;14.00;75.60;;;;;;5102499;27;20538;-77
2023/03/13 11:25:04;;;;;;;6.65;1.45;;;14.10;75.10;;;;;;5104068;28;20212;-76
2023/03/13 11:27:36;;;;;;;6.00;1.30;;;14.20;75.70;;;;;;5100857;28;20060;-76
2023/03/13 11:30:21;;;;;;;6.70;1.23;;;14.20;74.70;;;;;;5090615;28;20528;-76
2023/03/13 11:32:53;;;;;;;6.37;1.30;;;14.30;74.50;;;;;;5105707;28;20140;-76
2023/03/13 11:35:39;;;;;;;5.28;1.10;;;14.50;72.00;;;;;;5105423;28;20052;-76
2023/03/13 11:38:13;;;;;;;4.90;1.10;;;14.60;70.70;;;;;;5099152;28;20048;-76
2023/03/13 11:40:48;;;;;;;4.63;0.98;;;14.70;70.00;;;;;;5101046;28;20097;-76
2023/03/13 11:43:26;;;;;;;5.05;1.02;;;14.80;70.00;;;;;;5089038;28;20047;-76
2023/03/13 11:46:31;;;;;;;5.77;1.17;;;14.80;69.80;;;;;;5100303;28;20380;-77
2023/03/13 11:49:23;;;;;;;5.80;1.00;;;14.90;69.20;;;;;;5104263;27;20053;-76
2023/03/13 11:52:01;;;;;;;5.95;1.10;;;15.00;67.40;;;;;;5096102;28;20910;-77
2023/03/13 11:54:42;;;;;;;5.03;0.90;;;15.00;67.30;;;;;;5096115;28;20056;-76
2023/03/13 11:57:14;;;;;;;6.28;1.23;;;15.00;67.00;;;;;;5097034;28;20574;-75
2023/03/13 11:59:49;;;;;;;5.40;1.40;;;15.10;66.80;;;;;;5090840;28;20091;-75
2023/03/13 12:02:23;;;;;;;6.22;1.10;;;15.20;66.60;;;;;;5100438;28;20091;-76
2023/03/13 12:04:55;;;;;;;5.35;1.05;;;15.20;66.20;;;;;;5098234;28;20079;-76
2023/03/13 12:07:28;;;;;;;7.28;1.30;;;15.20;67.10;;;;;;5099453;28;20058;-76
2023/03/13 12:09:58;;;;;;;6.50;1.35;;;15.20;66.90;;;;;;5085900;28;20145;-76
2023/03/13 12:12:35;;;;;;;7.00;1.20;;;15.20;66.20;;;;;;5097822;28;20610;-76
2023/03/13 12:15:14;;;;;;;8.13;1.38;;;15.20;66.60;;;;;;5105115;28;20056;-75
2023/03/13 12:17:48;;;;;;;7.15;1.50;;;15.30;65.60;;;;;;5100659;28;20052;-75
2023/03/13 12:20:25;;;;;;;7.00;1.20;;;15.30;65.20;;;;;;5110628;27;20044;-76
2023/03/13 12:23:02;;;;;;;6.97;1.17;;;15.40;65.20;;;;;;5107523;28;20520;-76
2023/03/13 12:25:37;;;;;;;5.87;1.13;;;15.40;64.80;;;;;;5117196;27;20510;-78
2023/03/13 12:28:22;;;;;;;6.10;1.27;;;15.40;63.90;;;;;;5105894;28;20516;-76
2023/03/13 12:30:53;;;;;;;5.72;1.00;;;15.50;63.60;;;;;;5105000;28;20458;-77
2023/03/13 12:33:25;;;;;;;5.50;1.33;;;15.60;63.10;;;;;;5107250;28;20135;-77
2023/03/13 12:36:02;;;;;;;5.88;1.38;;;15.60;62.80;;;;;;5098291;28;20053;-76
2023/03/13 12:38:37;;;;;;;6.33;1.37;;;15.60;62.90;;;;;;5090442;27;20080;-75
2023/03/13 12:41:15;;;;;;;8.18;1.40;;;15.60;63.00;;;;;;5101501;28;20048;-76
2023/03/13 12:43:45;;;;;;;5.28;1.08;;;15.50;63.70;;;;;;5095068;28;20056;-76
2023/03/13 12:46:38;;;;;;;7.10;1.15;;;15.50;64.30;;;;;;5104000;28;20481;-76
2023/03/13 12:49:41;;;;;;;5.20;0.95;;;15.40;64.90;;;;;;5097769;28;20135;-77
2023/03/13 12:52:54;;;;;;;6.73;1.27;;;15.40;65.00;;;;;;5084130;28;20872;-78
2023/03/13 12:55:41;;;;;;;5.35;0.90;;;15.30;64.40;;;;;;5107003;28;20147;-78
2023/03/13 12:58:29;;;;;;;6.55;1.45;;;15.30;65.70;;;;;;5103594;28;20163;-76
2023/03/13 13:01:01;;;;;;;7.22;1.63;;;15.30;65.30;;;;;;5102642;28;20158;-76
2023/03/13 13:03:35;;;;;;;7.18;1.65;;;15.30;65.10;;;;;;5117921;27;20147;-76
2023/03/13 13:06:06;;;;;;;9.67;1.73;;;15.30;65.10;;;;;;5102473;28;20063;-76
2023/03/13 13:08:38;;;;;;;8.40;1.52;;;15.30;65.20;;;;;;5103998;28;20672;-76
2023/03/13 13:11:58;;;;;;;8.70;1.35;;;15.30;65.30;;;;;;5122279;27;20051;-77
2023/03/13 13:15:05;;;;;;;9.43;1.73;;;15.40;64.50;;;;;;5093082;27;20048;-74